Time;durP1;ratioP1;P1;durP2;ratioP2;P2;SDS_P1;SDS_P2;PMS_P1;PMS_P2;Temp;Humidity;BMP_temperature;BMP_pressure;BME280_temperature;BME280_humidity;BME280_pressure;Samples;Min_cycle;Max_cycle;Signal;HPM_P1;HPM_P2
2023/05/04 00:00:52;;;;;;;7.70;1.80;;;;;;;13.67;42.66;101750.23;107645;1253;112270;-60
2023/05/04 00:03:21;;;;;;;3.30;1.70;;;;;;;13.65;42.81;101745.92;107577;1254;109556;-60
2023/05/04 00:05:50;;;;;;;4.00;2.20;;;;;;;13.63;42.62;101743.73;107634;1254;108451;-59
2023/05/04 00:08:18;;;;;;;2.10;1.50;;;;;;;13.62;42.90;101736.98;107591;1254;97834;-63
2023/05/04 00:10:46;;;;;;;3.10;1.90;;;;;;;13.60;42.79;101732.98;107608;1254;97853;-59
2023/05/04 00:13:15;;;;;;;7.30;2.20;;;;;;;13.59;42.74;101721.54;107624;1254;112918;-59
2023/05/04 00:15:43;;;;;;;3.50;1.90;;;;;;;13.57;42.82;101715.73;107664;1251;109994;-58
2023/05/04 00:18:12;;;;;;;6.60;2.10;;;;;;;13.54;42.81;101714.73;107635;1252;106622;-58
2023/05/04 00:20:41;;;;;;;3.70;1.70;;;;;;;13.52;42.82;101713.29;107618;1251;97808;-60
2023/05/04 00:23:09;;;;;;;5.50;1.90;;;;;;;13.50;42.93;101711.86;107650;1250;97815;-59
2023/05/04 00:25:37;;;;;;;4.90;1.80;;;;;;;13.48;42.82;101714.73;107621;1251;112554;-62
2023/05/04 00:28:06;;;;;;;3.00;2.00;;;;;;;13.47;43.03;101717.37;107583;1251;109248;-61
2023/05/04 00:30:34;;;;;;;4.30;1.60;;;;;;;13.43;43.52;101714.38;107546;1253;109278;-61
2023/05/04 00:33:02;;;;;;;2.70;1.80;;;;;;;13.39;43.58;101709.19;107589;1254;97909;-58
2023/05/04 00:35:31;;;;;;;4.40;1.80;;;;;;;13.34;43.81;101706.91;107665;1251;98349;-59
2023/05/04 00:38:02;;;;;;;4.00;2.00;;;;;;;13.29;43.81;101705.32;107563;1254;111619;-60
2023/05/04 00:40:31;;;;;;;3.80;2.00;;;;;;;13.26;44.13;101707.02;107663;1251;110110;-59
2023/05/04 00:43:02;;;;;;;5.80;2.00;;;;;;;13.23;44.53;101713.04;107584;1255;107838;-62
2023/05/04 00:45:32;;;;;;;4.80;2.10;;;;;;;13.19;44.90;101711.76;107557;1254;97909;-59
2023/05/04 00:48:00;;;;;;;2.40;1.70;;;;;;;13.12;44.88;101718.92;107468;1258;97923;-58
2023/05/04 00:50:29;;;;;;;4.20;2.20;;;;;;;13.08;44.76;101722.19;107691;1250;111275;-60
2023/05/04 00:53:00;;;;;;;3.60;1.90;;;;;;;13.08;44.79;101726.37;107626;1251;109036;-62
2023/05/04 00:55:28;;;;;;;3.50;1.90;;;;;;;13.06;45.09;101720.95;107682;1251;108739;-63
2023/05/04 00:57:57;;;;;;;5.00;1.90;;;;;;;13.00;45.44;101721.41;107569;1256;97912;-59
2023/05/04 01:00:26;;;;;;;3.60;1.90;;;;;;;12.97;45.91;101722.92;107614;1251;98338;-58
2023/05/04 01:02:57;;;;;;;4.90;1.50;;;;;;;12.95;45.80;101719.52;107594;1251;111582;-58
2023/05/04 01:05:34;;;;;;;4.10;1.80;;;;;;;12.96;45.51;101731.67;107635;1251;111210;-61
2023/05/04 01:08:12;;;;;;;5.40;2.00;;;;;;;12.94;45.74;101730.59;107584;1256;107938;-60
2023/05/04 01:10:55;;;;;;;3.40;1.80;;;;;;;12.94;45.68;101733.84;107609;1251;97906;-59
2023/05/04 01:13:25;;;;;;;5.80;2.20;;;;;;;12.97;45.63;101740.20;107622;1251;97719;-60
2023/05/04 01:15:54;;;;;;;3.90;2.00;;;;;;;13.00;45.83;101741.77;107635;1254;111435;-60
2023/05/04 01:18:23;;;;;;;3.50;1.80;;;;;;;13.03;45.86;101741.57;107564;1254;109220;-59
2023/05/04 01:20:51;;;;;;;5.00;1.90;;;;;;;13.04;45.89;101742.88;107597;1251;108233;-60
2023/05/04 01:23:21;;;;;;;5.60;2.50;;;;;;;13.05;45.96;101739.77;107595;1251;97901;-61
2023/05/04 01:26:02;;;;;;;5.60;2.20;;;;;;;13.05;46.26;101732.88;107596;1256;97846;-60
2023/05/04 01:28:36;;;;;;;4.70;2.10;;;;;;;13.02;46.90;101727.34;107595;1254;110531;-61
2023/05/04 01:31:08;;;;;;;9.40;2.40;;;;;;;13.00;46.55;101725.58;107640;1251;109669;-61
2023/05/04 01:33:38;;;;;;;4.50;2.30;;;;;;;12.99;46.53;101715.19;107597;1251;106392;-60
2023/05/04 01:36:07;;;;;;;7.10;1.80;;;;;;;12.99;47.13;101710.13;107461;1259;97840;-59
2023/05/04 01:38:36;;;;;;;4.60;2.40;;;;;;;12.97;46.98;101709.05;107601;1251;97890;-59
2023/05/04 01:41:04;;;;;;;3.20;2.20;;;;;;;12.96;47.10;101705.94;107581;1256;111206;-60
2023/05/04 01:43:32;;;;;;;6.50;2.80;;;;;;;12.95;46.90;101702.38;107555;1251;109539;-60
2023/05/04 01:46:00;;;;;;;5.90;3.00;;;;;;;12.94;46.69;101702.63;107556;1251;106339;-60
2023/05/04 01:48:29;;;;;;;5.30;3.40;;;;;;;12.95;46.83;101698.39;107533;1251;97818;-60
2023/05/04 01:50:58;;;;;;;5.60;3.10;;;;;;;12.95;46.74;101697.86;107604;1256;98372;-60
2023/05/04 01:53:26;;;;;;;3.40;2.30;;;;;;;12.93;46.75;101696.81;107582;1256;112304;-60
2023/05/04 01:55:55;;;;;;;7.50;2.60;;;;;;;12.89;46.78;101697.30;107620;1251;109579;-61
2023/05/04 01:58:24;;;;;;;6.40;2.70;;;;;;;12.87;46.76;101704.31;107580;1251;108405;-60
2023/05/04 02:00:53;;;;;;;3.40;2.20;;;;;;;12.88;47.01;101694.71;107461;1254;97819;-58
2023/05/04 02:03:21;;;;;;;4.50;2.30;;;;;;;12.89;47.04;101687.25;107697;1255;97806;-59
2023/05/04 02:05:50;;;;;;;8.60;2.80;;;;;;;12.89;47.12;101682.08;107621;1256;111329;-61
2023/05/04 02:08:19;;;;;;;13.50;2.40;;;;;;;12.87;47.27;101682.54;107630;1257;108968;-59
2023/05/04 02:10:47;;;;;;;6.90;2.70;;;;;;;12.86;47.32;101680.81;107548;1251;108136;-60
2023/05/04 02:13:17;;;;;;;7.40;3.00;;;;;;;12.83;47.55;101681.95;107559;1251;97920;-59
2023/05/04 02:15:46;;;;;;;7.00;2.70;;;;;;;12.80;47.41;101684.91;107595;1254;98440;-61
2023/05/04 02:18:16;;;;;;;8.90;2.90;;;;;;;12.77;47.56;101684.94;107598;1254;110507;-59
2023/05/04 02:20:45;;;;;;;11.90;2.70;;;;;;;12.75;47.49;101684.61;107688;1251;109603;-60
2023/05/04 02:23:17;;;;;;;6.50;2.70;;;;;;;12.72;47.86;101681.80;107539;1251;108019;-61
2023/05/04 02:25:45;;;;;;;5.90;2.80;;;;;;;12.67;48.02;101685.98;107574;1256;97813;-59
2023/05/04 02:28:14;;;;;;;13.20;2.90;;;;;;;12.63;47.96;101687.57;107569;1254;98405;-59
2023/05/04 02:30:43;;;;;;;8.30;3.50;;;;;;;12.63;48.26;101688.33;107568;1253;112231;-59
2023/05/04 02:33:11;;;;;;;9.20;3.50;;;;;;;12.62;48.44;101688.17;107624;1254;109048;-60
2023/05/04 02:35:42;;;;;;;6.60;3.30;;;;;;;12.61;49.07;101692.77;107607;1256;108068;-59
2023/05/04 02:38:11;;;;;;;7.00;3.00;;;;;;;12.57;49.24;101694.18;107602;1254;97831;-62
2023/05/04 02:40:40;;;;;;;10.00;3.30;;;;;;;12.53;50.20;101697.89;107572;1255;97707;-60
2023/05/04 02:43:08;;;;;;;12.00;3.70;;;;;;;12.46;50.31;101702.82;107544;1254;112031;-60
2023/05/04 02:45:37;;;;;;;11.00;3.90;;;;;;;12.43;49.97;101700.73;107581;1254;109364;-60
2023/05/04 02:48:05;;;;;;;17.50;3.50;;;;;;;12.42;50.17;101703.91;107590;1254;108606;-59
2023/05/04 02:50:34;;;;;;;12.00;2.80;;;;;;;12.40;50.37;101704.43;107675;1256;97894;-60
2023/05/04 02:53:02;;;;;;;9.20;2.90;;;;;;;12.35;50.76;101700.33;107592;1255;98571;-61
2023/05/04 02:55:31;;;;;;;9.10;3.10;;;;;;;12.28;51.13;101694.53;107556;1254;112019;-61
2023/05/04 02:58:00;;;;;;;6.90;3.90;;;;;;;12.26;51.08;101693.88;107616;1253;110094;-62
2023/05/04 03:00:28;;;;;;;17.30;3.50;;;;;;;12.25;51.20;101693.61;107670;1251;107721;-59
2023/05/04 03:02:57;;;;;;;12.80;3.70;;;;;;;12.26;51.06;101698.54;107536;1251;97850;-58
2023/05/04 03:05:25;;;;;;;10.30;3.90;;;;;;;12.28;51.01;101700.35;107632;1251;98366;-61
2023/05/04 03:07:55;;;;;;;9.40;4.00;;;;;;;12.29;50.99;101705.29;107561;1251;110892;-58
2023/05/04 03:10:23;;;;;;;17.00;3.70;;;;;;;12.29;51.22;101703.14;107627;1257;109523;-59
2023/05/04 03:12:52;;;;;;;6.30;3.80;;;;;;;12.29;51.33;101700.98;107577;1257;108048;-62
2023/05/04 03:15:21;;;;;;;8.90;3.50;;;;;;;12.28;51.18;101702.27;107580;1254;97980;-59
2023/05/04 03:17:49;;;;;;;13.50;5.30;;;;;;;12.29;51.38;101702.06;107541;1254;97979;-59
2023/05/04 03:20:17;;;;;;;18.70;4.20;;;;;;;12.29;51.33;101700.44;107605;1256;112131;-59
2023/05/04 03:22:46;;;;;;;9.80;4.70;;;;;;;12.27;51.62;101703.63;107605;1251;110106;-60
2023/05/04 03:25:14;;;;;;;17.10;4.60;;;;;;;12.27;51.72;101702.95;107602;1251;108163;-59
2023/05/04 03:27:42;;;;;;;15.60;4.30;;;;;;;12.26;51.71;101705.02;107560;1251;97828;-59
2023/05/04 03:30:11;;;;;;;17.50;4.00;;;;;;;12.24;51.74;101710.36;107666;1251;97707;-61
2023/05/04 03:32:41;;;;;;;13.40;4.70;;;;;;;12.26;51.85;101712.75;107498;1260;112250;-60
2023/05/04 03:35:10;;;;;;;12.20;4.00;;;;;;;12.26;52.20;101716.70;107606;1254;109749;-59
2023/05/04 03:37:38;;;;;;;9.40;3.60;;;;;;;12.24;52.25;101714.52;107566;1251;107978;-59
2023/05/04 03:40:08;;;;;;;12.70;4.40;;;;;;;12.23;52.01;101722.89;107636;1251;97889;-59
2023/05/04 03:42:37;;;;;;;17.40;4.50;;;;;;;12.21;51.99;101721.20;107712;1251;98394;-59
2023/05/04 03:45:06;;;;;;;9.20;4.00;;;;;;;12.19;52.23;101721.91;107674;1254;112536;-59
2023/05/04 03:47:35;;;;;;;9.80;3.80;;;;;;;12.18;52.23;101719.27;107649;1256;110311;-61
2023/05/04 03:50:05;;;;;;;12.20;4.30;;;;;;;12.17;52.77;101720.06;107607;1251;108629;-60
2023/05/04 03:52:34;;;;;;;12.90;4.70;;;;;;;12.13;52.68;101723.80;107550;1257;97822;-59
2023/05/04 03:55:05;;;;;;;12.50;3.70;;;;;;;12.14;52.56;101723.05;107583;1253;97739;-60
2023/05/04 03:57:34;;;;;;;13.20;3.30;;;;;;;12.16;52.90;101723.77;107456;1254;111085;-61
2023/05/04 04:00:03;;;;;;;10.20;4.00;;;;;;;12.15;53.14;101725.95;107628;1254;109108;-62
2023/05/04 04:02:42;;;;;;;10.40;3.50;;;;;;;12.15;53.31;101728.92;107538;1254;107866;-62
2023/05/04 04:05:16;;;;;;;15.90;4.10;;;;;;;12.12;53.05;101732.72;107577;1255;97850;-63
2023/05/04 04:07:45;;;;;;;12.70;4.20;;;;;;;12.12;52.89;101736.85;107581;1254;97837;-59
2023/05/04 04:10:13;;;;;;;15.70;4.00;;;;;;;12.14;53.07;101739.95;107592;1254;111556;-59
2023/05/04 04:12:41;;;;;;;13.50;3.90;;;;;;;12.17;53.29;101739.55;107640;1255;108323;-61
2023/05/04 04:15:11;;;;;;;13.80;4.00;;;;;;;12.20;53.09;101744.67;107527;1254;107596;-61
2023/05/04 04:17:40;;;;;;;11.30;4.20;;;;;;;12.25;53.05;101746.79;107596;1254;97910;-59
2023/05/04 04:20:09;;;;;;;9.50;4.80;;;;;;;12.29;53.01;101742.35;107608;1251;96502;-61
2023/05/04 04:22:37;;;;;;;9.90;4.10;;;;;;;12.33;53.22;101745.05;107623;1254;112278;-60
2023/05/04 04:25:06;;;;;;;10.40;4.10;;;;;;;12.39;53.42;101746.71;107568;1254;109667;-60
2023/05/04 04:27:35;;;;;;;18.10;4.10;;;;;;;12.43;53.58;101744.32;107626;1254;106295;-61
2023/05/04 04:30:04;;;;;;;19.20;4.40;;;;;;;12.48;53.36;101749.28;107523;1254;97908;-62
2023/05/04 04:32:33;;;;;;;17.10;4.10;;;;;;;12.56;53.52;101747.79;107629;1251;97921;-61
2023/05/04 04:35:03;;;;;;;10.10;4.50;;;;;;;12.63;53.31;101741.40;107622;1257;112442;-61
2023/05/04 04:37:31;;;;;;;20.50;5.20;;;;;;;12.68;53.51;101740.25;107536;1257;107960;-60
2023/05/04 04:40:00;;;;;;;14.80;4.60;;;;;;;12.74;53.38;101736.92;107509;1257;108021;-59
2023/05/04 04:42:29;;;;;;;15.30;4.60;;;;;;;12.84;53.37;101743.80;107530;1254;97860;-61
2023/05/04 04:44:58;;;;;;;26.00;5.20;;;;;;;12.92;53.43;101742.83;107558;1254;97861;-59
2023/05/04 04:47:26;;;;;;;29.10;5.60;;;;;;;12.98;53.18;101744.45;107564;1251;111114;-59
2023/05/04 04:49:55;;;;;;;14.70;4.20;;;;;;;13.06;53.15;101741.14;107582;1251;109904;-60
2023/05/04 04:52:23;;;;;;;24.90;6.00;;;;;;;13.13;53.31;101738.36;107581;1254;108193;-60
2023/05/04 04:54:52;;;;;;;26.80;4.80;;;;;;;13.17;53.43;101737.15;107586;1251;98069;-61
2023/05/04 04:57:20;;;;;;;16.30;5.10;;;;;;;13.18;53.19;101740.15;107551;1254;98444;-60
2023/05/04 04:59:48;;;;;;;17.40;4.50;;;;;;;13.20;53.03;101744.42;107628;1255;112114;-59
2023/05/04 05:02:18;;;;;;;17.90;4.30;;;;;;;13.27;53.02;101744.52;107599;1254;109812;-59
2023/05/04 05:04:48;;;;;;;10.30;4.30;;;;;;;13.36;52.98;101738.99;107536;1254;108157;-59
2023/05/04 05:07:17;;;;;;;10.70;4.10;;;;;;;13.41;52.71;101739.61;107622;1253;97902;-60
2023/05/04 05:09:45;;;;;;;19.40;5.00;;;;;;;13.47;52.65;101743.67;107621;1254;97704;-58
2023/05/04 05:12:15;;;;;;;12.00;4.80;;;;;;;13.52;52.38;101741.77;107546;1252;111807;-61
2023/05/04 05:14:46;;;;;;;14.20;4.80;;;;;;;13.58;52.09;101743.08;107624;1251;110483;-64
2023/05/04 05:17:17;;;;;;;22.60;4.40;;;;;;;13.66;52.20;101740.94;107612;1255;108475;-61
2023/05/04 05:19:45;;;;;;;14.80;4.90;;;;;;;13.72;52.25;101744.92;107475;1251;97702;-61
2023/05/04 05:22:16;;;;;;;18.70;4.40;;;;;;;13.74;52.14;101749.62;107579;1251;99493;-60
2023/05/04 05:24:45;;;;;;;13.70;4.30;;;;;;;13.82;51.99;101744.64;107621;1251;111207;-61
2023/05/04 05:27:13;;;;;;;7.30;4.40;;;;;;;13.90;51.93;101745.38;107591;1251;109180;-61
2023/05/04 05:29:42;;;;;;;10.50;3.80;;;;;;;13.94;51.76;101742.85;107533;1254;107830;-61
2023/05/04 05:32:11;;;;;;;8.30;4.10;;;;;;;13.99;51.76;101740.04;107610;1251;97834;-60
2023/05/04 05:34:39;;;;;;;8.10;4.30;;;;;;;14.08;51.66;101738.21;107601;1251;97726;-60
2023/05/04 05:37:08;;;;;;;12.90;4.20;;;;;;;14.15;51.61;101741.95;107573;1250;111805;-59
2023/05/04 05:39:37;;;;;;;8.20;4.40;;;;;;;14.18;51.49;101746.38;107584;1251;109674;-60
2023/05/04 05:42:05;;;;;;;10.80;4.70;;;;;;;14.22;51.33;101746.53;107525;1251;108912;-61
2023/05/04 05:44:36;;;;;;;13.30;4.90;;;;;;;14.34;51.32;101746.52;107512;1251;97902;-59
2023/05/04 05:47:05;;;;;;;15.30;4.90;;;;;;;14.43;51.07;101748.66;107519;1251;98381;-61
2023/05/04 05:49:34;;;;;;;15.40;4.80;;;;;;;14.49;50.95;101751.37;107541;1251;111938;-61
2023/05/04 05:52:02;;;;;;;14.50;4.90;;;;;;;14.51;50.82;101750.09;107537;1251;109140;-59
2023/05/04 05:54:31;;;;;;;10.70;4.10;;;;;;;14.59;50.74;101756.29;107534;1251;108273;-59
2023/05/04 05:56:59;;;;;;;12.20;4.50;;;;;;;14.67;50.79;101754.66;107570;1251;97850;-60
2023/05/04 05:59:28;;;;;;;8.50;3.90;;;;;;;14.74;50.54;101756.40;107575;1251;98389;-60
2023/05/04 06:01:56;;;;;;;11.80;4.00;;;;;;;14.82;50.32;101753.32;107512;1251;111474;-59
2023/05/04 06:04:25;;;;;;;9.30;4.00;;;;;;;14.89;50.15;101754.52;107585;1251;111204;-59
2023/05/04 06:06:53;;;;;;;12.70;4.30;;;;;;;14.96;50.24;101758.52;107553;1251;108474;-60
2023/05/04 06:09:22;;;;;;;20.30;4.10;;;;;;;15.06;50.28;101758.89;107474;1251;97808;-60
2023/05/04 06:11:51;;;;;;;10.90;4.60;;;;;;;15.16;50.07;101762.62;107536;1251;97701;-59
2023/05/04 06:14:22;;;;;;;11.70;3.70;;;;;;;15.22;49.76;101765.37;107590;1251;111057;-60
2023/05/04 06:16:51;;;;;;;15.70;4.40;;;;;;;15.30;49.78;101767.70;107508;1251;107218;-60
2023/05/04 06:19:20;;;;;;;12.60;4.40;;;;;;;15.39;49.82;101772.10;107399;1251;106794;-61
2023/05/04 06:21:49;;;;;;;17.50;4.50;;;;;;;15.48;49.61;101766.77;107466;1253;97813;-62
2023/05/04 06:24:17;;;;;;;16.80;4.50;;;;;;;15.60;49.46;101762.73;107620;1256;97701;-60
2023/05/04 06:26:46;;;;;;;14.80;4.00;;;;;;;15.73;49.20;101764.04;107620;1251;111181;-60
2023/05/04 06:29:15;;;;;;;6.80;2.70;;;;;;;15.87;47.68;101762.23;107502;1250;110115;-61
2023/05/04 06:31:45;;;;;;;19.80;2.70;;;;;;;15.96;45.69;101767.17;107508;1251;108571;-61
2023/05/04 06:34:16;;;;;;;9.90;2.90;;;;;;;16.04;45.27;101768.73;107517;1251;97883;-60
2023/05/04 06:36:44;;;;;;;8.90;3.30;;;;;;;16.15;44.46;101765.95;107557;1251;97787;-60
2023/05/04 06:39:13;;;;;;;10.70;2.80;;;;;;;16.23;44.21;101766.00;107526;1251;111101;-61
2023/05/04 06:41:42;;;;;;;20.10;3.10;;;;;;;16.32;43.46;101768.11;107467;1251;109716;-59
2023/05/04 06:44:10;;;;;;;8.60;2.60;;;;;;;16.38;43.50;101768.70;107560;1251;108569;-60
2023/05/04 06:46:39;;;;;;;13.80;3.40;;;;;;;16.48;43.35;101769.94;107526;1251;97823;-60
2023/05/04 06:49:07;;;;;;;10.00;3.00;;;;;;;16.56;43.10;101771.84;107531;1254;97839;-58
2023/05/04 06:51:36;;;;;;;7.30;2.80;;;;;;;16.65;42.67;101773.95;107525;1251;111514;-60
2023/05/04 06:54:05;;;;;;;3.90;2.50;;;;;;;16.70;42.43;101778.86;107559;1251;109859;-59
2023/05/04 06:56:33;;;;;;;7.10;3.10;;;;;;;16.72;42.62;101786.09;107522;1251;107318;-61
2023/05/04 06:59:02;;;;;;;10.40;2.90;;;;;;;16.79;42.59;101789.02;107587;1254;98040;-61
2023/05/04 07:01:30;;;;;;;5.00;2.60;;;;;;;16.80;42.44;101778.73;107606;1254;97850;-60
2023/05/04 07:03:59;;;;;;;6.10;2.70;;;;;;;16.91;42.35;101786.23;107506;1254;111754;-60
2023/05/04 07:06:28;;;;;;;10.00;2.80;;;;;;;16.96;42.28;101788.97;107556;1251;109899;-60
2023/05/04 07:08:56;;;;;;;5.20;2.60;;;;;;;17.02;42.38;101793.14;107484;1251;108058;-61
2023/05/04 07:11:26;;;;;;;8.40;2.90;;;;;;;17.02;42.52;101792.23;107509;1251;97831;-61
2023/05/04 07:13:55;;;;;;;7.50;3.50;;;;;;;17.03;42.74;101795.52;107520;1251;97882;-61
2023/05/04 07:16:25;;;;;;;19.40;3.80;;;;;;;17.05;42.72;101793.20;107592;1251;111597;-64
2023/05/04 07:18:53;;;;;;;8.80;3.00;;;;;;;17.03;42.70;101793.36;107480;1254;109870;-60
2023/05/04 07:21:21;;;;;;;11.70;3.40;;;;;;;16.97;42.73;101796.69;107562;1254;108021;-61
2023/05/04 07:23:56;;;;;;;10.40;3.40;;;;;;;16.94;43.11;101797.40;107490;1253;97793;-60
2023/05/04 07:26:24;;;;;;;17.90;3.60;;;;;;;16.90;43.25;101800.99;107526;1253;97706;-61
2023/05/04 07:28:52;;;;;;;8.20;2.80;;;;;;;16.85;42.81;101809.20;107563;1250;111622;-61
2023/05/04 07:31:21;;;;;;;5.00;2.50;;;;;;;16.77;42.42;101816.55;107565;1254;108735;-60
2023/05/04 07:33:50;;;;;;;7.00;2.40;;;;;;;16.67;42.21;101818.42;107517;1251;108354;-59
2023/05/04 07:36:19;;;;;;;7.60;2.80;;;;;;;16.55;42.37;101823.97;107509;1254;97890;-60
2023/05/04 07:38:47;;;;;;;4.20;2.50;;;;;;;16.39;42.66;101832.21;107530;1251;97947;-59
2023/05/04 07:41:16;;;;;;;7.50;2.70;;;;;;;16.27;43.08;101830.64;107607;1251;112658;-61
2023/05/04 07:43:44;;;;;;;8.60;2.60;;;;;;;16.20;43.54;101837.45;107517;1251;108843;-60
2023/05/04 07:46:13;;;;;;;4.20;2.80;;;;;;;16.09;43.98;101841.77;107615;1251;107645;-60
2023/05/04 07:48:41;;;;;;;8.30;3.00;;;;;;;16.00;44.24;101842.98;107558;1252;97839;-59
2023/05/04 07:51:13;;;;;;;12.40;3.00;;;;;;;15.91;44.49;101848.31;107653;1251;97827;-61
2023/05/04 07:53:43;;;;;;;9.60;3.40;;;;;;;15.80;44.72;101850.20;107680;1251;111300;-60
2023/05/04 07:56:12;;;;;;;6.90;3.20;;;;;;;15.72;45.19;101860.39;107618;1251;107803;-61
2023/05/04 07:58:41;;;;;;;11.60;3.20;;;;;;;15.61;45.71;101857.05;107564;1251;108624;-59
2023/05/04 08:01:10;;;;;;;11.10;3.60;;;;;;;15.57;46.25;101858.67;106835;1251;1024158;-60
2023/05/04 08:03:39;;;;;;;9.80;3.60;;;;;;;15.54;46.57;101863.50;107613;1250;97707;-60
2023/05/04 08:06:07;;;;;;;10.10;4.20;;;;;;;15.47;46.89;101860.30;107604;1251;111714;-60
2023/05/04 08:08:35;;;;;;;7.50;4.00;;;;;;;15.43;47.20;101863.55;107469;1254;109778;-61
2023/05/04 08:11:04;;;;;;;4.90;3.50;;;;;;;15.43;47.45;101866.31;107553;1254;108254;-61
2023/05/04 08:13:48;;;;;;;11.30;5.10;;;;;;;15.37;47.58;101865.42;107547;1251;97912;-61
2023/05/04 08:16:17;;;;;;;11.30;3.90;;;;;;;15.37;47.82;101858.89;107670;1250;97701;-60
2023/05/04 08:18:46;;;;;;;6.70;4.00;;;;;;;15.37;47.89;101858.91;107519;1250;111844;-59
2023/05/04 08:21:14;;;;;;;11.20;5.20;;;;;;;15.35;47.86;101855.31;107568;1254;112892;-61
2023/05/04 08:23:43;;;;;;;6.20;3.90;;;;;;;15.39;47.87;101849.89;107579;1254;107843;-58
2023/05/04 08:26:11;;;;;;;8.90;4.40;;;;;;;15.41;47.75;101837.01;107618;1254;97943;-59
2023/05/04 08:28:40;;;;;;;10.50;3.80;;;;;;;15.48;47.70;101828.55;107555;1254;97899;-60
2023/05/04 08:31:08;;;;;;;12.90;4.20;;;;;;;15.63;47.51;101825.98;107626;1251;112353;-63
2023/05/04 08:33:37;;;;;;;22.70;3.90;;;;;;;15.70;47.11;101823.72;107573;1251;108767;-62
2023/05/04 08:36:07;;;;;;;15.30;4.20;;;;;;;15.72;46.65;101806.98;107559;1254;107974;-59
2023/05/04 08:38:35;;;;;;;9.80;4.00;;;;;;;15.71;46.58;101790.29;107600;1254;98486;-60
2023/05/04 08:41:05;;;;;;;7.40;3.50;;;;;;;15.64;46.42;101768.30;107634;1251;97926;-61
2023/05/04 08:43:35;;;;;;;7.20;3.90;;;;;;;15.61;46.47;101745.64;107622;1251;110097;-60
2023/05/04 08:46:04;;;;;;;9.10;4.00;;;;;;;15.69;46.37;101739.35;107641;1250;108559;-61
2023/05/04 08:48:33;;;;;;;11.20;3.70;;;;;;;15.77;46.19;101744.33;107559;1251;108603;-61
2023/05/04 08:51:05;;;;;;;14.70;4.00;;;;;;;15.95;45.97;101758.83;107583;1251;97818;-60
2023/05/04 08:53:36;;;;;;;9.50;4.10;;;;;;;16.31;45.56;101775.98;107563;1254;97829;-60
2023/05/04 08:56:08;;;;;;;7.20;3.40;;;;;;;16.71;44.77;101804.63;107631;1251;110698;-60
2023/05/04 08:58:39;;;;;;;11.70;3.80;;;;;;;17.09;43.57;101816.70;107574;1251;109862;-61
2023/05/04 09:01:10;;;;;;;10.00;3.70;;;;;;;17.37;43.19;101830.36;107638;1251;107702;-61
2023/05/04 09:03:39;;;;;;;8.20;3.30;;;;;;;17.65;42.46;101832.34;107568;1253;97834;-60
2023/05/04 09:06:08;;;;;;;9.80;3.50;;;;;;;17.88;42.41;101835.42;107644;1251;98372;-62
2023/05/04 09:08:36;;;;;;;7.80;3.50;;;;;;;18.11;41.58;101841.27;107547;1251;112221;-62
2023/05/04 09:11:05;;;;;;;9.80;3.60;;;;;;;18.19;41.31;101835.67;107560;1254;109462;-61
2023/05/04 09:13:34;;;;;;;5.90;3.00;;;;;;;18.36;41.89;101832.05;107576;1251;108154;-61
2023/05/04 09:16:03;;;;;;;16.40;3.30;;;;;;;18.65;41.26;101827.93;107576;1250;98146;-60
2023/05/04 09:18:58;;;;;;;10.50;3.20;;;;;;;18.90;41.14;101829.10;107615;1251;98364;-60
2023/05/04 09:21:30;;;;;;;6.80;3.40;;;;;;;19.18;40.80;101827.25;107475;1253;111986;-60
2023/05/04 09:23:58;;;;;;;7.20;3.00;;;;;;;19.38;40.50;101825.30;107555;1254;109432;-59
2023/05/04 09:26:31;;;;;;;17.30;3.30;;;;;;;19.53;40.46;101817.60;107488;1250;106862;-61
2023/05/04 09:29:13;;;;;;;14.10;3.30;;;;;;;19.69;40.15;101818.01;107488;1251;97963;-61
2023/05/04 09:31:50;;;;;;;10.90;2.80;;;;;;;19.86;40.27;101813.58;107578;1254;98450;-62
2023/05/04 09:34:20;;;;;;;4.90;3.00;;;;;;;20.14;40.30;101803.98;107558;1251;111382;-62
2023/05/04 09:37:02;;;;;;;11.90;3.20;;;;;;;20.38;38.54;101809.04;107572;1251;109706;-61
2023/05/04 09:39:30;;;;;;;8.80;2.80;;;;;;;20.56;37.54;101819.25;107481;1256;107281;-62
2023/05/04 09:41:59;;;;;;;12.50;3.00;;;;;;;20.64;37.53;101816.25;107457;1253;97871;-60
2023/05/04 09:44:28;;;;;;;8.30;2.90;;;;;;;20.84;37.56;101814.40;107600;1250;97822;-59
2023/05/04 09:46:58;;;;;;;9.40;2.80;;;;;;;21.12;36.94;101816.61;107588;1250;111111;-61
2023/05/04 09:49:31;;;;;;;6.70;2.60;;;;;;;21.28;36.89;101818.08;107571;1250;107198;-60
2023/05/04 09:52:01;;;;;;;8.70;3.00;;;;;;;21.55;35.78;101821.23;107505;1251;108105;-59
2023/05/04 09:54:34;;;;;;;13.10;2.60;;;;;;;21.77;35.15;101824.48;107560;1251;97912;-61
2023/05/04 09:57:11;;;;;;;11.00;2.90;;;;;;;22.10;35.24;101819.40;107539;1251;97845;-62
2023/05/04 09:59:45;;;;;;;14.80;3.20;;;;;;;22.64;35.15;101816.30;107542;1250;111169;-63
2023/05/04 10:02:18;;;;;;;11.20;3.40;;;;;;;23.26;35.20;101810.40;107442;1252;110038;-61
2023/05/04 10:04:51;;;;;;;9.10;3.40;;;;;;;23.76;33.95;101803.85;107570;1253;107822;-61
2023/05/04 10:07:20;;;;;;;13.40;3.70;;;;;;;24.05;33.15;101803.08;107606;1253;98090;-61
2023/05/04 10:09:52;;;;;;;9.60;3.20;;;;;;;24.26;32.83;101802.80;107412;1251;97762;-61
2023/05/04 10:12:21;;;;;;;9.10;2.80;;;;;;;24.57;32.36;101797.92;107529;1250;111713;-62
2023/05/04 10:14:49;;;;;;;5.20;2.70;;;;;;;24.78;31.78;101806.83;107534;1250;110724;-62
2023/05/04 10:17:44;;;;;;;9.30;2.60;;;;;;;24.75;30.99;101806.45;107467;1251;107270;-63
2023/05/04 10:20:49;;;;;;;8.10;2.60;;;;;;;24.49;30.77;101803.84;107556;1251;98030;-61
2023/05/04 10:23:21;;;;;;;9.30;2.50;;;;;;;24.00;31.01;101806.50;107535;1253;97707;-62
2023/05/04 10:26:17;;;;;;;8.80;2.50;;;;;;;23.66;31.59;101806.31;107602;1252;112901;-62
2023/05/04 10:29:11;;;;;;;14.60;2.80;;;;;;;23.30;31.74;101810.70;107538;1251;109259;-61
2023/05/04 10:31:41;;;;;;;9.90;2.90;;;;;;;22.87;32.33;101814.95;107562;1254;108262;-62
2023/05/04 10:34:10;;;;;;;6.00;2.70;;;;;;;22.65;32.94;101811.81;107567;1251;97864;-64
2023/05/04 10:36:42;;;;;;;6.90;2.90;;;;;;;22.50;33.26;101809.13;107559;1251;97886;-61
2023/05/04 10:39:22;;;;;;;8.00;2.20;;;;;;;22.40;33.35;101805.02;107555;1251;112349;-66
2023/05/04 10:42:16;;;;;;;8.10;2.50;;;;;;;22.35;33.42;101800.49;107532;1250;109767;-60
2023/05/04 10:44:55;;;;;;;8.70;2.40;;;;;;;22.39;34.03;101788.52;107587;1253;107422;-61
2023/05/04 10:47:31;;;;;;;3.60;1.90;;;;;;;22.40;34.42;101776.34;107564;1251;97825;-60
2023/05/04 10:50:09;;;;;;;7.40;2.20;;;;;;;22.54;34.30;101771.09;107637;1254;97808;-61
2023/05/04 10:52:45;;;;;;;10.00;2.40;;;;;;;22.67;33.92;101763.66;107607;1251;112922;-63
2023/05/04 10:55:15;;;;;;;6.90;2.40;;;;;;;22.93;34.16;101766.78;107571;1251;108952;-62
2023/05/04 10:57:54;;;;;;;4.70;1.80;;;;;;;23.18;33.63;101774.89;107430;1251;108287;-61
2023/05/04 11:00:41;;;;;;;8.40;2.20;;;;;;;23.28;33.16;101782.58;107563;1251;97829;-60
2023/05/04 11:03:11;;;;;;;6.50;1.80;;;;;;;23.03;33.08;101785.91;107478;1251;97819;-61
2023/05/04 11:05:45;;;;;;;5.20;1.90;;;;;;;22.77;33.37;101780.01;107574;1254;112353;-62
2023/05/04 11:08:21;;;;;;;7.40;1.90;;;;;;;22.53;33.69;101780.77;107471;1251;109842;-60
2023/05/04 11:11:04;;;;;;;6.20;1.70;;;;;;;22.39;33.86;101775.77;107539;1251;108806;-60
2023/05/04 11:13:40;;;;;;;7.10;2.50;;;;;;;22.35;33.79;101772.16;107482;1253;97822;-64
2023/05/04 11:16:11;;;;;;;5.30;1.90;;;;;;;22.25;33.66;101769.05;107665;1251;97724;-61
2023/05/04 11:18:40;;;;;;;5.50;1.60;;;;;;;22.19;34.01;101765.06;107507;1251;112293;-63
2023/05/04 11:21:11;;;;;;;5.10;1.90;;;;;;;22.26;34.19;101760.69;107487;1251;110424;-61
2023/05/04 11:23:41;;;;;;;6.30;1.80;;;;;;;22.44;33.56;101761.59;107508;1254;108738;-62